Time;durP1;ratioP1;P1;durP2;ratioP2;P2;SDS_P1;SDS_P2;PMS_P1;PMS_P2;Temp;Humidity;BMP_temperature;BMP_pressure;BME280_temperature;BME280_humidity;BME280_pressure;Samples;Min_cycle;Max_cycle;Signal;HPM_P1;HPM_P2
2022/04/08 00:02:12;;;;;;;13.53;1.70;;;;;;;5.94;83.71;99751.97;4996866;28;20057;-85
2022/04/08 00:04:37;;;;;;;14.88;1.67;;;;;;;5.94;83.10;99745.97;5009358;28;20285;-85
2022/04/08 00:07:03;;;;;;;12.32;1.88;;;;;;;5.92;82.79;99748.59;5008732;28;20037;-85
2022/04/08 00:09:28;;;;;;;16.35;1.95;;;;;;;5.92;83.66;99751.19;5006932;28;20032;-85
2022/04/08 00:11:55;;;;;;;13.57;1.70;;;;;;;5.90;82.71;99746.94;4999104;28;20022;-85
2022/04/08 00:14:20;;;;;;;9.75;1.45;;;;;;;5.92;82.39;99755.47;5005223;28;20280;-85
2022/04/08 00:16:46;;;;;;;12.13;1.70;;;;;;;5.92;81.69;99760.63;4992610;28;20403;-85
2022/04/08 00:19:11;;;;;;;14.00;2.72;;;;;;;5.90;82.19;99773.50;5001443;28;20135;-85
2022/04/08 00:21:37;;;;;;;11.60;1.73;;;;;;;5.85;81.77;99775.31;4992913;28;20479;-85
2022/04/08 00:24:02;;;;;;;14.65;2.35;;;;;;;5.79;81.97;99778.00;5001434;28;20038;-85
2022/04/08 00:26:28;;;;;;;15.77;1.88;;;;;;;5.84;82.28;99780.47;4995626;28;20034;-85
2022/04/08 00:28:53;;;;;;;14.05;1.70;;;;;;;5.81;82.85;99789.09;4992861;28;20022;-85
2022/04/08 00:31:18;;;;;;;10.98;1.70;;;;;;;5.83;83.28;99797.63;4995210;28;20026;-84
2022/04/08 00:33:44;;;;;;;17.48;2.58;;;;;;;5.83;83.30;99794.19;4996484;28;20403;-85
2022/04/08 00:36:09;;;;;;;16.40;2.35;;;;;;;5.80;83.43;99794.28;5004540;28;20029;-85
2022/04/08 00:38:34;;;;;;;18.60;2.58;;;;;;;5.80;84.09;99802.00;4997290;28;20034;-85
2022/04/08 00:41:00;;;;;;;16.10;2.22;;;;;;;5.79;84.37;99810.59;4997834;28;20364;-85
2022/04/08 00:43:37;;;;;;;16.75;3.80;;;;;;;5.79;84.11;99808.00;4991850;28;20095;-85
2022/04/08 00:46:03;;;;;;;20.17;2.15;;;;;;;5.75;83.97;99806.38;5006895;28;20033;-85
2022/04/08 00:48:29;;;;;;;23.13;2.45;;;;;;;5.72;84.08;99811.59;4990441;28;20053;-85
2022/04/08 00:50:55;;;;;;;12.38;1.85;;;;;;;5.72;83.93;99809.88;5007397;28;20387;-85
2022/04/08 00:53:21;;;;;;;15.70;2.38;;;;;;;5.72;83.52;99816.72;5001254;28;20177;-85
2022/04/08 00:55:47;;;;;;;16.88;1.98;;;;;;;5.72;83.53;99821.88;4996963;28;20119;-85
2022/04/08 00:58:13;;;;;;;14.10;1.85;;;;;;;5.73;83.96;99828.72;5003839;28;20026;-85
2022/04/08 01:00:39;;;;;;;15.93;1.92;;;;;;;5.71;84.18;99831.31;5000466;28;20026;-85
2022/04/08 01:03:05;;;;;;;9.70;2.15;;;;;;;5.66;83.75;99834.84;4992863;28;20037;-85
2022/04/08 01:05:34;;;;;;;11.70;1.98;;;;;;;5.59;84.11;99846.13;4999750;28;20022;-85
2022/04/08 01:08:00;;;;;;;9.95;2.15;;;;;;;5.51;84.14;99842.00;4991892;28;20145;-85
2022/04/08 01:10:26;;;;;;;14.48;2.22;;;;;;;5.47;84.60;99840.34;5005053;28;20559;-85
2022/04/08 01:12:51;;;;;;;12.15;2.28;;;;;;;5.44;83.83;99853.25;4986836;28;20053;-85
2022/04/08 01:15:18;;;;;;;15.70;1.92;;;;;;;5.40;83.81;99854.19;4997947;28;20034;-85
2022/04/08 01:17:44;;;;;;;13.43;1.90;;;;;;;5.38;83.26;99863.66;4994302;28;20027;-85
2022/04/08 01:20:10;;;;;;;11.90;1.83;;;;;;;5.37;84.62;99866.25;4999446;28;20027;-85
2022/04/08 01:22:36;;;;;;;10.30;1.58;;;;;;;5.34;83.69;99872.28;4993785;28;20033;-85
2022/04/08 01:25:05;;;;;;;11.80;1.90;;;;;;;5.28;84.07;99872.38;4990638;28;20037;-85
2022/04/08 01:27:31;;;;;;;10.77;1.70;;;;;;;5.24;84.32;99865.63;4992579;28;20031;-85
2022/04/08 01:29:56;;;;;;;9.77;2.25;;;;;;;5.22;84.12;99867.38;4989906;28;20049;-85
2022/04/08 01:32:22;;;;;;;13.65;2.15;;;;;;;5.25;83.67;99875.03;4989873;28;20438;-85
2022/04/08 01:34:49;;;;;;;15.05;1.98;;;;;;;5.28;84.06;99890.38;4989418;28;20127;-85
2022/04/08 01:37:17;;;;;;;13.00;1.70;;;;;;;5.30;84.82;99890.34;4989264;28;20030;-85
2022/04/08 01:39:43;;;;;;;14.13;2.10;;;;;;;5.26;85.42;99881.84;4991777;28;20524;-85
2022/04/08 01:42:08;;;;;;;14.23;2.05;;;;;;;5.17;86.43;99892.28;4993795;28;20519;-85
2022/04/08 01:44:35;;;;;;;9.68;1.70;;;;;;;5.08;87.03;99884.72;4993536;28;20549;-84
2022/04/08 01:47:00;;;;;;;9.85;1.90;;;;;;;5.06;87.13;99891.59;4993988;28;20395;-85
2022/04/08 01:49:25;;;;;;;9.65;1.80;;;;;;;5.03;87.05;99891.69;4991598;28;20511;-84
2022/04/08 01:51:50;;;;;;;9.60;1.63;;;;;;;4.99;87.78;99892.56;4993517;28;20080;-84
2022/04/08 01:54:16;;;;;;;9.00;2.05;;;;;;;4.92;88.06;99891.84;4993679;28;20022;-85
2022/04/08 01:56:41;;;;;;;12.57;2.50;;;;;;;4.87;87.88;99895.34;4993755;28;20026;-85
2022/04/08 01:59:06;;;;;;;11.23;2.10;;;;;;;4.83;87.81;99896.28;4993069;28;20278;-85
2022/04/08 02:01:31;;;;;;;9.75;2.00;;;;;;;4.80;87.88;99898.88;5024839;28;20041;-84
2022/04/08 02:03:57;;;;;;;12.20;2.23;;;;;;;4.75;88.28;99894.69;4993375;28;20123;-85
2022/04/08 02:06:22;;;;;;;13.38;2.50;;;;;;;4.72;88.52;99906.69;4993334;28;20280;-84
2022/04/08 02:08:49;;;;;;;12.60;2.28;;;;;;;4.76;88.49;99905.78;4993546;28;20037;-85
2022/04/08 02:11:15;;;;;;;13.10;1.92;;;;;;;4.80;89.02;99910.00;4993433;28;20045;-84
2022/04/08 02:13:40;;;;;;;12.48;2.30;;;;;;;4.83;88.38;99909.97;4993193;28;20403;-85
2022/04/08 02:16:06;;;;;;;18.90;2.38;;;;;;;4.85;88.08;99918.47;4995263;28;20487;-85
2022/04/08 02:18:31;;;;;;;9.40;1.90;;;;;;;4.86;88.22;99919.31;5000105;28;20442;-85
2022/04/08 02:20:56;;;;;;;13.13;1.83;;;;;;;4.85;88.01;99923.59;5006441;28;20521;-85
2022/04/08 02:23:22;;;;;;;7.80;1.70;;;;;;;4.84;88.06;99921.94;4996721;28;20034;-84
2022/04/08 02:25:47;;;;;;;9.00;2.08;;;;;;;4.85;86.98;99927.88;5003933;28;20030;-85
2022/04/08 02:28:12;;;;;;;11.90;1.80;;;;;;;4.78;88.44;99937.41;5010027;28;20101;-84
2022/04/08 02:30:38;;;;;;;9.68;1.88;;;;;;;4.66;87.72;99930.75;5004434;28;20030;-84
2022/04/08 02:33:04;;;;;;;12.55;1.63;;;;;;;4.58;87.24;99927.44;4997410;28;20041;-85
2022/04/08 02:35:31;;;;;;;10.10;1.70;;;;;;;4.50;87.22;99928.44;4999035;28;20196;-85
2022/04/08 02:37:57;;;;;;;10.82;1.60;;;;;;;4.41;87.20;99926.84;4991165;28;20422;-85
2022/04/08 02:40:22;;;;;;;11.27;1.92;;;;;;;4.35;86.97;99924.34;4992613;28;20528;-84
2022/04/08 02:42:47;;;;;;;6.85;1.50;;;;;;;4.33;87.49;99918.38;4992638;28;20495;-85
2022/04/08 02:45:12;;;;;;;6.77;1.07;;;;;;;4.28;87.28;99926.16;4992194;28;20109;-85
2022/04/08 02:47:45;;;;;;;6.10;1.25;;;;;;;4.29;87.50;99934.69;4991290;28;20289;-84
2022/04/08 02:50:11;;;;;;;7.07;1.55;;;;;;;4.25;87.03;99928.75;4992281;28;20530;-84
2022/04/08 02:52:38;;;;;;;8.27;1.80;;;;;;;4.19;87.38;99926.25;4991443;28;20424;-84
2022/04/08 02:55:04;;;;;;;13.45;2.13;;;;;;;4.14;87.21;99932.31;4992375;28;20479;-84
2022/04/08 02:57:30;;;;;;;11.25;2.13;;;;;;;4.11;87.44;99937.47;4992253;28;20551;-84
2022/04/08 02:59:55;;;;;;;7.13;2.00;;;;;;;4.08;88.16;99933.25;4992447;28;20105;-84
2022/04/08 03:02:20;;;;;;;5.80;1.70;;;;;;;4.02;88.33;99938.44;4991158;28;20081;-84
2022/04/08 03:04:45;;;;;;;4.68;1.52;;;;;;;4.00;89.67;99931.63;4990841;28;20022;-84
2022/04/08 03:07:11;;;;;;;8.63;1.80;;;;;;;3.91;88.14;99937.69;4992447;28;20045;-84
2022/04/08 03:09:37;;;;;;;7.90;1.50;;;;;;;3.83;88.23;99937.78;4991970;28;20788;-84
2022/04/08 03:12:03;;;;;;;5.32;1.40;;;;;;;3.77;89.07;99942.13;4992254;28;20026;-84
2022/04/08 03:14:29;;;;;;;9.43;2.17;;;;;;;3.70;89.04;99941.34;4992111;28;20045;-84
2022/04/08 03:16:54;;;;;;;10.73;1.90;;;;;;;3.61;88.79;99940.59;4992264;28;20105;-84
2022/04/08 03:19:19;;;;;;;7.13;1.90;;;;;;;3.55;89.44;99946.63;4992066;28;20054;-84
2022/04/08 03:21:45;;;;;;;11.90;2.10;;;;;;;3.51;90.08;99950.94;4991583;28;20285;-84
2022/04/08 03:24:12;;;;;;;12.02;2.20;;;;;;;3.44;89.81;99951.84;4992491;28;20056;-85
2022/04/08 03:26:37;;;;;;;10.45;1.95;;;;;;;3.39;89.79;99945.94;4991963;28;20030;-85
2022/04/08 03:29:03;;;;;;;8.90;2.00;;;;;;;3.34;90.09;99954.53;4991580;28;20026;-84
2022/04/08 03:31:29;;;;;;;9.25;2.67;;;;;;;3.32;90.26;99962.22;4996844;28;20026;-84
2022/04/08 03:33:54;;;;;;;12.45;2.20;;;;;;;3.32;91.18;99958.81;5010775;28;20022;-84
2022/04/08 03:36:19;;;;;;;11.23;2.30;;;;;;;3.27;90.93;99968.25;4995758;28;20065;-84
2022/04/08 03:38:45;;;;;;;10.73;2.60;;;;;;;3.22;91.65;99965.69;5003404;28;20033;-84
2022/04/08 03:41:10;;;;;;;11.43;2.00;;;;;;;3.22;91.69;99969.97;4992759;28;20021;-84
2022/04/08 03:43:35;;;;;;;11.52;2.50;;;;;;;3.20;92.42;99972.56;4996389;28;20030;-85
2022/04/08 03:46:01;;;;;;;9.93;2.45;;;;;;;3.17;92.15;99975.13;4992725;28;20034;-84
2022/04/08 03:48:26;;;;;;;8.00;2.38;;;;;;;3.12;91.79;99982.88;5000666;28;20423;-85
2022/04/08 03:50:52;;;;;;;16.80;2.47;;;;;;;3.09;92.36;99977.75;4989743;28;20054;-84
2022/04/08 03:53:18;;;;;;;7.63;2.15;;;;;;;3.08;92.66;99977.75;4978536;28;20137;-84
2022/04/08 03:55:43;;;;;;;11.70;2.08;;;;;;;3.09;92.78;99974.34;4991095;28;20469;-84
2022/04/08 03:58:09;;;;;;;10.95;2.67;;;;;;;3.07;92.91;99984.59;4989895;28;20484;-84
2022/04/08 04:00:35;;;;;;;11.75;2.47;;;;;;;3.07;92.92;99987.16;4991516;28;20453;-85
2022/04/08 04:03:00;;;;;;;12.95;2.40;;;;;;;3.05;92.95;99986.31;4990146;28;20030;-85
2022/04/08 04:05:26;;;;;;;13.25;2.95;;;;;;;3.04;92.69;99984.63;5001489;28;20029;-84
2022/04/08 04:07:51;;;;;;;11.10;2.45;;;;;;;3.04;92.95;99979.50;4996567;28;20034;-85
2022/04/08 04:10:16;;;;;;;9.33;2.50;;;;;;;3.03;92.69;99982.91;4989328;28;20030;-84
2022/04/08 04:12:42;;;;;;;12.00;2.28;;;;;;;3.00;92.29;99974.44;4993209;28;20285;-84
2022/04/08 04:15:09;;;;;;;10.77;2.55;;;;;;;2.99;93.45;99976.13;4989874;28;20022;-84
2022/04/08 04:17:34;;;;;;;13.32;2.25;;;;;;;2.93;92.60;99981.31;4996178;28;20034;-84
2022/04/08 04:20:00;;;;;;;11.48;2.15;;;;;;;2.91;92.99;99969.38;5002072;28;20032;-85
2022/04/08 04:22:25;;;;;;;9.75;2.13;;;;;;;2.90;93.13;99975.34;4996069;28;20033;-84
2022/04/08 04:24:51;;;;;;;15.38;2.65;;;;;;;2.86;92.77;99973.66;4991403;28;20037;-85
2022/04/08 04:27:16;;;;;;;12.25;2.90;;;;;;;2.86;93.47;99966.84;4993334;28;20029;-84
2022/04/08 04:29:41;;;;;;;10.68;2.42;;;;;;;2.83;92.94;99964.28;4989195;28;20072;-84
2022/04/08 04:32:07;;;;;;;9.23;2.47;;;;;;;2.80;92.76;99966.03;4991452;28;20026;-85
2022/04/08 04:34:33;;;;;;;9.13;2.38;;;;;;;2.75;92.54;99972.00;5002849;28;20096;-84
2022/04/08 04:36:59;;;;;;;12.63;3.13;;;;;;;2.74;93.16;99980.53;4995520;28;20069;-84
2022/04/08 04:39:24;;;;;;;13.65;2.60;;;;;;;2.71;93.06;99975.47;4991200;28;20034;-84
2022/04/08 04:41:49;;;;;;;14.25;3.05;;;;;;;2.71;92.95;99974.63;5001833;28;20113;-84
2022/04/08 04:44:14;;;;;;;12.90;2.67;;;;;;;2.71;93.76;99985.69;4992330;28;20509;-84
2022/04/08 04:46:40;;;;;;;11.27;2.63;;;;;;;2.70;93.12;99978.03;4989688;28;20289;-85
2022/04/08 04:49:05;;;;;;;13.57;2.88;;;;;;;2.71;93.40;99982.28;4989876;28;20348;-84
2022/04/08 04:51:30;;;;;;;10.07;2.70;;;;;;;2.74;93.13;99985.66;4990410;28;20038;-84
2022/04/08 04:53:57;;;;;;;15.32;2.80;;;;;;;2.71;92.82;99975.47;4990269;28;20030;-85
2022/04/08 04:56:23;;;;;;;12.25;2.65;;;;;;;2.74;93.39;99979.69;4989040;28;20033;-85
2022/04/08 04:58:48;;;;;;;11.23;2.83;;;;;;;2.71;92.66;99987.41;4990829;28;20065;-84
2022/04/08 05:01:14;;;;;;;7.35;2.88;;;;;;;2.68;92.86;99989.97;4991175;28;20049;-84
2022/04/08 05:03:39;;;;;;;10.13;3.20;;;;;;;2.65;93.20;99992.56;4989233;28;20458;-84
2022/04/08 05:06:04;;;;;;;11.75;2.83;;;;;;;2.63;93.03;99994.25;4990001;28;20038;-84
2022/04/08 05:08:30;;;;;;;10.70;3.03;;;;;;;2.61;93.20;99983.19;4989847;28;20038;-85
2022/04/08 05:10:55;;;;;;;13.97;4.10;;;;;;;2.65;94.47;99985.72;4988999;28;20105;-85
2022/04/08 05:13:20;;;;;;;10.10;3.55;;;;;;;2.62;94.13;99985.75;4987083;28;20305;-85
2022/04/08 05:15:46;;;;;;;11.02;3.47;;;;;;;2.63;93.97;99986.59;4995814;28;20061;-85
2022/04/08 05:18:12;;;;;;;11.90;3.60;;;;;;;2.66;94.21;99991.69;4995175;28;20022;-85
2022/04/08 05:20:37;;;;;;;10.90;3.80;;;;;;;2.68;94.91;99995.94;4987925;28;20390;-84
2022/04/08 05:23:02;;;;;;;15.07;4.00;;;;;;;2.72;95.30;99991.66;4990814;28;20060;-85
2022/04/08 05:25:28;;;;;;;13.85;4.18;;;;;;;2.79;95.58;99998.44;4988576;28;20030;-85
2022/04/08 05:27:54;;;;;;;12.05;3.80;;;;;;;2.83;95.80;99991.59;4990919;28;20458;-84
2022/04/08 05:30:19;;;;;;;15.40;4.13;;;;;;;2.88;95.08;99993.25;4990108;28;20026;-85
2022/04/08 05:32:46;;;;;;;13.23;4.18;;;;;;;2.95;95.08;99984.69;4990481;28;20023;-85
2022/04/08 05:35:15;;;;;;;12.20;4.10;;;;;;;3.09;95.53;99980.31;4989486;28;20034;-85
2022/04/08 05:37:44;;;;;;;11.25;4.40;;;;;;;3.20;95.24;99972.56;4993154;28;20037;-84
2022/04/08 05:40:13;;;;;;;10.15;4.25;;;;;;;3.35;94.64;99962.16;4989109;28;20447;-85
2022/04/08 05:42:39;;;;;;;13.43;4.55;;;;;;;3.56;94.68;99966.25;4990571;28;20089;-85
2022/04/08 05:45:07;;;;;;;14.55;4.68;;;;;;;3.78;93.56;99962.63;4989887;28;20034;-85
2022/04/08 05:47:34;;;;;;;9.93;4.18;;;;;;;3.91;92.41;99961.63;4988291;28;20072;-85
2022/04/08 05:49:59;;;;;;;12.15;4.70;;;;;;;3.97;91.10;99961.56;4985843;28;20055;-85
2022/04/08 05:52:24;;;;;;;10.93;4.28;;;;;;;4.02;90.65;99960.66;4992834;28;20018;-85
2022/04/08 05:55:20;;;;;;;12.95;4.38;;;;;;;4.04;90.43;99954.63;4990612;28;20030;-85
2022/04/08 05:57:47;;;;;;;11.75;4.10;;;;;;;4.10;90.11;99953.72;4988040;28;20050;-84
2022/04/08 06:00:14;;;;;;;12.23;4.20;;;;;;;4.15;89.90;99934.88;4981211;28;20422;-85
2022/04/08 06:02:43;;;;;;;15.85;4.00;;;;;;;4.23;90.06;99953.53;4983857;28;20054;-84
2022/04/08 06:05:09;;;;;;;13.60;4.53;;;;;;;4.32;90.40;99945.75;4989648;28;20538;-85
2022/04/08 06:07:34;;;;;;;12.85;4.65;;;;;;;4.40;89.93;99952.50;4988617;28;20039;-84
2022/04/08 06:10:02;;;;;;;16.55;4.95;;;;;;;4.48;89.43;99948.13;5000924;28;20169;-84
2022/04/08 06:12:28;;;;;;;11.15;4.80;;;;;;;4.57;89.41;99953.13;5021671;28;20058;-84
2022/04/08 06:14:54;;;;;;;11.20;4.50;;;;;;;4.63;88.83;99955.63;4989943;28;20104;-84
2022/04/08 06:17:19;;;;;;;11.00;4.53;;;;;;;4.73;89.85;99950.31;4980271;28;20037;-85
2022/04/08 06:19:45;;;;;;;12.45;4.53;;;;;;;4.79;87.77;99957.06;4989864;28;20068;-85
2022/04/08 06:22:11;;;;;;;14.32;5.07;;;;;;;4.82;87.74;99946.78;4984915;28;20022;-85
2022/04/08 06:24:36;;;;;;;16.50;5.00;;;;;;;4.89;88.47;99945.81;4997850;28;20037;-85
2022/04/08 06:27:02;;;;;;;12.90;5.40;;;;;;;4.95;87.73;99953.41;4985696;28;20026;-85
2022/04/08 06:29:27;;;;;;;12.35;5.53;;;;;;;5.02;87.36;99960.16;4989385;28;20037;-84
2022/04/08 06:31:52;;;;;;;15.33;6.10;;;;;;;5.20;88.75;99956.44;4993650;28;20054;-85
2022/04/08 06:34:17;;;;;;;17.03;7.40;;;;;;;5.51;87.06;99952.50;4993035;28;20274;-84
2022/04/08 06:36:43;;;;;;;14.23;6.32;;;;;;;6.08;87.78;99952.31;4993255;28;20289;-85
2022/04/08 06:39:08;;;;;;;14.23;6.68;;;;;;;6.93;84.70;99947.91;5005237;28;20030;-84
2022/04/08 06:41:33;;;;;;;13.60;6.50;;;;;;;7.52;81.12;99945.59;4992440;28;20495;-84
2022/04/08 06:43:59;;;;;;;15.20;6.90;;;;;;;7.76;79.50;99934.66;5024893;28;20285;-85
2022/04/08 06:46:24;;;;;;;13.90;6.18;;;;;;;7.81;78.92;99930.19;4992867;28;20343;-85
2022/04/08 06:48:49;;;;;;;13.65;6.13;;;;;;;7.85;77.38;99926.63;5024415;28;20050;-85
2022/04/08 06:51:16;;;;;;;15.48;7.20;;;;;;;7.98;76.91;99926.31;4993640;28;20085;-85
2022/04/08 06:53:41;;;;;;;14.77;6.20;;;;;;;8.10;77.45;99924.25;4997228;28;20034;-85
2022/04/08 06:56:06;;;;;;;14.10;7.07;;;;;;;8.25;76.94;99925.53;5004419;28;20049;-85
2022/04/08 06:58:38;;;;;;;20.50;7.22;;;;;;;8.32;75.79;99932.25;4995803;28;20038;-85
2022/04/08 07:01:04;;;;;;;15.05;6.45;;;;;;;8.19;75.50;99923.97;5003488;28;20032;-85
2022/04/08 07:03:29;;;;;;;13.70;6.40;;;;;;;8.04;76.25;99924.41;4996927;28;20128;-85
2022/04/08 07:05:55;;;;;;;15.07;7.13;;;;;;;7.98;77.49;99929.75;4981161;28;20113;-85
2022/04/08 07:08:20;;;;;;;14.43;6.97;;;;;;;7.90;76.48;99929.97;4998220;28;20289;-85
2022/04/08 07:10:45;;;;;;;15.03;7.10;;;;;;;7.92;77.96;99925.59;4992670;28;20343;-85
2022/04/08 07:13:10;;;;;;;16.23;7.10;;;;;;;7.94;77.20;99921.22;5000046;28;20319;-85
2022/04/08 07:15:36;;;;;;;16.02;7.57;;;;;;;7.98;77.97;99927.16;4999762;28;20738;-85
2022/04/08 07:18:07;;;;;;;13.37;6.63;;;;;;;8.05;77.76;99933.81;4987191;28;20371;-85
2022/04/08 07:20:32;;;;;;;11.55;6.95;;;;;;;8.17;77.22;99925.75;4995223;28;20638;-85
2022/04/08 07:23:01;;;;;;;12.57;6.50;;;;;;;8.28;76.31;99925.44;4992398;28;20030;-85
2022/04/08 07:25:27;;;;;;;15.05;7.13;;;;;;;8.25;75.64;99926.38;4993818;28;20073;-85
2022/04/08 07:27:55;;;;;;;14.45;6.90;;;;;;;8.19;74.90;99921.38;5002010;28;20022;-85
2022/04/08 07:30:22;;;;;;;14.02;7.13;;;;;;;8.18;76.54;99924.03;4997345;28;20249;-85
2022/04/08 07:32:52;;;;;;;10.88;6.68;;;;;;;8.20;76.69;99920.50;4992306;28;20491;-85
2022/04/08 07:35:21;;;;;;;11.82;6.15;;;;;;;8.21;75.36;99918.75;5003886;28;20121;-85
2022/04/08 07:37:46;;;;;;;14.18;6.35;;;;;;;8.14;75.15;99920.66;4991383;28;20491;-85
2022/04/08 07:40:13;;;;;;;13.85;6.93;;;;;;;8.22;76.78;99917.88;5002137;28;20037;-85
2022/04/08 07:42:38;;;;;;;13.65;6.22;;;;;;;8.35;76.37;99918.38;5001758;28;20492;-85
2022/04/08 07:45:05;;;;;;;11.80;5.45;;;;;;;8.46;74.55;99916.34;5001982;28;20030;-85
2022/04/08 07:47:31;;;;;;;13.13;6.50;;;;;;;8.49;74.38;99911.06;4994666;28;20014;-85
2022/04/08 07:50:01;;;;;;;11.32;5.30;;;;;;;8.51;73.22;99917.91;4998733;28;20042;-85
2022/04/08 07:52:27;;;;;;;11.25;5.40;;;;;;;8.54;74.79;99922.09;4991591;28;20547;-86
2022/04/08 07:54:54;;;;;;;11.63;5.15;;;;;;;8.59;74.60;99915.94;4988626;28;20487;-85
2022/04/08 07:57:19;;;;;;;12.88;5.35;;;;;;;8.65;73.29;99913.16;5001060;28;20122;-85
2022/04/08 07:59:45;;;;;;;12.05;4.80;;;;;;;8.65;72.54;99913.16;5017392;28;20026;-85
2022/04/08 08:02:10;;;;;;;10.50;5.18;;;;;;;8.58;71.29;99905.66;4991408;28;20522;-85
2022/04/08 08:04:39;;;;;;;12.18;5.10;;;;;;;8.56;72.47;99910.00;4991501;28;20394;-85
2022/04/08 08:07:05;;;;;;;9.05;4.47;;;;;;;8.59;71.50;99921.09;4991521;28;20384;-85
2022/04/08 08:09:30;;;;;;;9.18;4.50;;;;;;;8.59;72.24;99915.09;5000617;28;20520;-85
2022/04/08 08:11:55;;;;;;;9.52;4.50;;;;;;;8.56;70.90;99907.41;4992101;28;20041;-85
2022/04/08 08:14:23;;;;;;;8.75;4.15;;;;;;;8.58;71.35;99906.50;4987451;28;20268;-85
2022/04/08 08:16:48;;;;;;;13.02;4.50;;;;;;;8.61;71.79;99911.53;5023220;28;20026;-85
2022/04/08 08:19:16;;;;;;;11.07;4.43;;;;;;;8.63;71.42;99909.78;4987827;28;20455;-85
2022/04/08 08:21:42;;;;;;;12.20;4.45;;;;;;;8.64;68.92;99914.06;4991435;28;20085;-85
2022/04/08 08:24:08;;;;;;;12.52;4.00;;;;;;;8.60;68.64;99904.69;4990994;28;20034;-85
2022/04/08 08:26:33;;;;;;;11.45;4.38;;;;;;;8.60;69.76;99909.84;4992735;28;20053;-85
2022/04/08 08:28:59;;;;;;;10.50;4.30;;;;;;;8.70;69.47;99907.84;5002160;28;20105;-85
2022/04/08 08:31:24;;;;;;;12.18;4.47;;;;;;;8.77;71.08;99911.06;5009533;28;20029;-85
2022/04/08 08:33:50;;;;;;;9.73;4.60;;;;;;;8.87;70.46;99908.16;4996266;28;20116;-85
2022/04/08 08:36:15;;;;;;;11.52;5.15;;;;;;;8.98;70.37;99902.66;4989696;28;20033;-85
2022/04/08 08:38:43;;;;;;;11.80;4.45;;;;;;;9.02;70.58;99894.75;4997211;28;20037;-85
2022/04/08 08:41:10;;;;;;;9.38;4.30;;;;;;;9.09;68.79;99898.81;4993264;28;20030;-85
2022/04/08 08:43:36;;;;;;;10.05;4.32;;;;;;;9.10;67.66;99891.91;4994455;28;20041;-85
2022/04/08 08:46:04;;;;;;;10.95;4.45;;;;;;;9.15;68.34;99877.06;4990746;28;20045;-85
2022/04/08 08:48:33;;;;;;;8.63;3.75;;;;;;;9.24;69.04;99874.19;4992776;28;20030;-85
2022/04/08 08:51:01;;;;;;;12.27;4.22;;;;;;;9.36;68.73;99873.78;4990159;28;20121;-85
2022/04/08 08:53:29;;;;;;;8.70;3.88;;;;;;;9.48;69.11;99862.19;4998048;28;20026;-85
2022/04/08 08:55:54;;;;;;;10.85;4.03;;;;;;;9.55;66.82;99861.06;5000047;28;20026;-85
2022/04/08 08:58:20;;;;;;;8.67;3.90;;;;;;;9.56;65.78;99859.28;4993607;28;20034;-84
2022/04/08 09:00:45;;;;;;;8.10;3.80;;;;;;;9.54;64.39;99855.94;4994280;28;20646;-85
2022/04/08 09:03:10;;;;;;;9.80;3.88;;;;;;;9.57;64.62;99855.81;4994425;28;20488;-85
2022/04/08 09:05:41;;;;;;;8.32;3.90;;;;;;;9.65;66.23;99851.22;4990791;28;20033;-85
2022/04/08 09:08:08;;;;;;;7.45;3.67;;;;;;;9.75;66.38;99844.81;4995534;28;20034;-85
2022/04/08 09:10:39;;;;;;;10.93;3.40;;;;;;;9.85;65.92;99852.19;4990815;28;20057;-85
2022/04/08 09:13:07;;;;;;;6.38;3.40;;;;;;;9.94;66.51;99839.81;4990792;28;20121;-85
2022/04/08 09:15:37;;;;;;;8.35;3.53;;;;;;;10.02;62.19;99838.63;4993582;28;20440;-85
2022/04/08 09:18:05;;;;;;;7.95;3.10;;;;;;;10.05;63.93;99838.50;4994354;28;20025;-85
2022/04/08 09:20:42;;;;;;;12.13;3.35;;;;;;;10.15;65.23;99837.28;5000762;28;20030;-85
2022/04/08 09:23:09;;;;;;;10.20;3.10;;;;;;;10.24;62.29;99841.25;4990934;28;20030;-85
2022/04/08 09:25:34;;;;;;;7.22;3.20;;;;;;;10.26;62.69;99842.91;5001686;28;20084;-85
2022/04/08 09:28:08;;;;;;;9.65;3.33;;;;;;;10.29;61.28;99853.16;4985134;28;20022;-86
2022/04/08 09:30:33;;;;;;;9.27;3.57;;;;;;;10.32;61.79;99844.41;4985170;28;20030;-85
2022/04/08 09:33:10;;;;;;;10.30;3.20;;;;;;;10.41;62.36;99844.06;4987475;28;20371;-85
2022/04/08 09:35:39;;;;;;;7.85;3.28;;;;;;;10.43;60.84;99833.66;4988976;28;20166;-85
2022/04/08 09:38:05;;;;;;;9.13;3.08;;;;;;;10.36;61.17;99843.41;4990410;28;20027;-85
2022/04/08 09:40:40;;;;;;;8.85;3.00;;;;;;;10.26;60.77;99839.47;4989943;28;20029;-85
2022/04/08 09:43:06;;;;;;;8.52;3.05;;;;;;;10.20;60.89;99839.69;5021608;28;20030;-85
2022/04/08 09:45:32;;;;;;;7.38;3.10;;;;;;;10.14;61.77;99829.56;4989759;28;20158;-85
2022/04/08 09:48:02;;;;;;;8.63;3.08;;;;;;;10.15;62.30;99829.50;5021956;28;20054;-85
2022/04/08 09:50:28;;;;;;;10.30;3.30;;;;;;;10.15;61.93;99826.91;4988213;28;20058;-85
2022/04/08 09:52:54;;;;;;;6.45;3.28;;;;;;;10.13;62.42;99828.69;5021633;28;20038;-85
2022/04/08 09:55:21;;;;;;;9.55;3.08;;;;;;;10.16;62.02;99830.34;4990256;28;20041;-85
2022/04/08 09:57:50;;;;;;;12.13;3.65;;;;;;;10.17;60.70;99830.28;4989717;28;20523;-85
2022/04/08 10:00:16;;;;;;;6.75;2.97;;;;;;;10.13;60.57;99822.69;4989973;28;20052;-85
2022/04/08 10:02:44;;;;;;;8.32;3.10;;;;;;;10.11;60.87;99833.09;5025548;28;20022;-85
2022/04/08 10:05:11;;;;;;;10.18;3.20;;;;;;;10.13;60.07;99833.03;4986820;28;20038;-85
2022/04/08 10:07:38;;;;;;;10.10;3.55;;;;;;;10.18;62.36;99824.22;4995014;28;20044;-85
2022/04/08 10:10:23;;;;;;;10.98;3.30;;;;;;;10.25;62.03;99817.91;4995196;28;20033;-85
2022/04/08 10:13:03;;;;;;;8.68;3.42;;;;;;;10.30;61.03;99828.09;5004881;28;20249;-85
2022/04/08 10:15:57;;;;;;;9.52;3.50;;;;;;;10.36;60.67;99824.44;5026556;28;20036;-85
2022/04/08 10:18:32;;;;;;;11.25;3.63;;;;;;;10.55;61.75;99830.56;5017179;28;20033;-85
2022/04/08 10:20:59;;;;;;;7.63;3.05;;;;;;;10.59;60.03;99825.19;4993210;28;20034;-85
2022/04/08 10:23:35;;;;;;;9.18;3.33;;;;;;;10.60;59.40;99821.69;5000594;28;20037;-85
2022/04/08 10:26:00;;;;;;;9.68;3.10;;;;;;;10.57;60.81;99821.84;4994001;28;20038;-85
2022/04/08 10:28:34;;;;;;;10.00;3.17;;;;;;;10.53;60.25;99817.66;4994675;28;20073;-85
2022/04/08 10:31:03;;;;;;;6.45;3.28;;;;;;;10.48;59.51;99823.94;4988013;28;20042;-85
2022/04/08 10:33:29;;;;;;;10.35;3.40;;;;;;;10.43;58.60;99818.09;4985390;28;20026;-84
2022/04/08 10:35:59;;;;;;;10.02;3.30;;;;;;;10.43;59.61;99828.47;5024421;28;20057;-84
2022/04/08 10:38:35;;;;;;;9.38;3.25;;;;;;;10.44;60.30;99818.00;4989945;28;20027;-85
2022/04/08 10:41:01;;;;;;;12.27;3.63;;;;;;;10.40;59.22;99820.78;4992577;28;20054;-85
2022/04/08 10:43:26;;;;;;;11.25;3.30;;;;;;;10.34;59.08;99819.28;4992634;28;20058;-85
2022/04/08 10:45:57;;;;;;;8.73;3.58;;;;;;;10.19;58.78;99810.38;4992645;28;20033;-85
2022/04/08 10:48:30;;;;;;;7.10;3.65;;;;;;;9.99;59.63;99807.66;4975318;28;20030;-85
2022/04/08 10:51:09;;;;;;;8.05;3.40;;;;;;;9.90;61.15;99808.84;4992962;28;20439;-85
2022/04/08 10:53:34;;;;;;;7.93;3.15;;;;;;;9.94;60.40;99816.50;4993269;28;20034;-85
2022/04/08 10:56:13;;;;;;;8.00;3.60;;;;;;;10.01;60.62;99815.38;4993044;28;20088;-85
2022/04/08 10:58:45;;;;;;;9.27;3.67;;;;;;;10.15;62.40;99813.13;4991534;28;20027;-85
2022/04/08 11:01:24;;;;;;;7.90;4.18;;;;;;;10.21;61.01;99816.34;4981827;28;20094;-85
2022/04/08 11:04:04;;;;;;;6.90;3.95;;;;;;;10.18;58.45;99813.00;4990186;28;20105;-84
2022/04/08 11:06:34;;;;;;;9.50;3.90;;;;;;;10.26;59.67;99808.38;4992721;28;20030;-85
2022/04/08 11:09:14;;;;;;;12.60;3.95;;;;;;;10.37;58.86;99813.16;4992096;28;20026;-85
2022/04/08 11:11:45;;;;;;;10.48;4.05;;;;;;;10.36;58.27;99811.47;5018978;28;20048;-85
2022/04/08 11:14:11;;;;;;;10.32;3.70;;;;;;;10.29;57.43;99806.53;4997008;28;20030;-85
2022/04/08 11:16:38;;;;;;;10.20;3.75;;;;;;;10.34;57.44;99798.56;4985468;28;20022;-86
2022/04/08 11:19:05;;;;;;;10.48;3.70;;;;;;;10.41;58.06;99784.47;5006499;28;20030;-85
2022/04/08 11:21:33;;;;;;;9.70;4.43;;;;;;;10.59;58.96;99786.31;4994972;28;20080;-85
2022/04/08 11:24:05;;;;;;;11.88;4.45;;;;;;;10.77;57.92;99795.09;4992707;28;20077;-85
2022/04/08 11:26:40;;;;;;;9.18;3.80;;;;;;;10.81;56.84;99795.81;5026570;28;20088;-85
2022/04/08 11:29:15;;;;;;;11.35;3.92;;;;;;;10.83;58.75;99794.84;5003865;28;20511;-85
2022/04/08 11:31:41;;;;;;;12.73;4.22;;;;;;;10.78;58.26;99789.00;4990724;28;20041;-85
2022/04/08 11:34:06;;;;;;;11.48;4.32;;;;;;;10.71;57.12;99786.75;4992069;28;20030;-85